Poseidon — DBKV — position and weather

sailwx.info

Track history (hours):
 
Tides and Currents Weather Stations Pressure Air Temp Water Temp Dewpoint Dewpoint Depression Visibility Wind Speed Wind Dir Waves Ship Positions

Oceanographic research ship Poseidon (Germany)

Detailed information on ship capabilities available from University of Delaware's Ocean Information Center.

Last reported at 2019-May-20 04:00 UTC. Time now 2019-May-20 04:27 UTC.
Position N 58°00' W 000°24'.

Length 60 m; beam 11.4 m; draft 4.1 m.

Type: Ship. MMSI: 211204360.

Wind from 130 at 6 knots

Barometer 1012.2 mb
Air temperature 10.2 ° C
Water temperature 10.6 ° C

Date/timePositionNaut miles runAvg speedWind from/ knotsBaromVisibWave heightAir tempDewpointWater temp
2019-May-20 04:00N 58°00' W 000°24'0 0.0 130 / 61012.2 10.2 10.6
2019-May-20 03:00N 58°00' W 000°24'0 0.0 150 / 51011.9 10.4 10.7
2019-May-20 02:00N 58°00' W 000°24'0 0.0 180 / 71012.0 10.4 10.6
2019-May-20 01:00N 58°00' W 000°24'0 0.0 180 / 71012.3 10.9 10.6
2019-May-20 00:00N 58°00' W 000°24'0 0.0 160 / 81012.4 10.7 10.6
2019-May-19 23:00N 58°00' W 000°24'0 0.0 180 / 61012.4 10.5 10.7
2019-May-19 22:00N 58°00' W 000°24'0 0.0 170 / 81012.6 10.2 10.7
2019-May-19 20:00N 58°00' W 000°24'0 0.0 180 / 91012.0 10.4 10.7
2019-May-19 19:00N 58°00' W 000°24'0 0.0 150 / 81011.5 10.4 10.8
2019-May-19 18:00N 58°00' W 000°24'0 0.0 150 / 81011.3 10.5 10.5
2019-May-19 17:00N 58°00' W 000°24'0 0.0 160 / 61011.2 10.4 10.5
2019-May-19 16:00N 58°00' W 000°24'3 3.2 170 / 61011.2 9.2 10.5
2019-May-19 15:00N 58°00' W 000°30'6 6.0 200 / 71011.0 9.9 10.7
2019-May-19 14:00N 57°54' W 000°30'6 6.0 210 / 71010.8 10.2 10.5
2019-May-19 13:00N 58°00' W 000°30'0 0.0 210 / 51010.5 10.2 10.3
2019-May-19 12:00N 58°00' W 000°30'0 0.0 210 / 81010.2 9.9 10.3
2019-May-19 11:00N 58°00' W 000°30'0 0.0 170 / 121010.0 10.0 10.3
2019-May-19 10:00N 58°00' W 000°30'0 0.0 160 / 81009.8 10.2 10.3
2019-May-19 09:00N 58°00' W 000°30'0 0.0 170 / 51009.7 9.9 10.2
2019-May-19 08:00N 58°00' W 000°30'0 0.0 170 / 71009.5 9.9 10.3
2019-May-19 07:00N 58°00' W 000°30'0 0.0 160 / 71009.1 9.9 10.3
2019-May-19 06:00N 58°00' W 000°30'0 0.0 160 / 81008.9 9.7 10.1
2019-May-19 05:00N 58°00' W 000°30'0 0.0 150 / 71008.8 9.7 10.1
2019-May-19 04:00N 58°00' W 000°30'0 0.0 160 / 81008.7 9.5 10.1
2019-May-19 03:00N 58°00' W 000°30'0 0.0 130 / 81008.8 9.7 10.0
2019-May-19 02:00N 58°00' W 000°30'0 0.0 110 / 141008.8 9.7 10.1
2019-May-19 01:00N 58°00' W 000°30'0 0.0 100 / 91009.0 9.7 10.1
2019-May-19 00:00N 58°00' W 000°30'0 0.0 100 / 71009.5 9.7 10.1
2019-May-18 23:00N 58°00' W 000°30'0 0.0 120 / 81009.8 9.4 10.1
2019-May-18 22:00N 58°00' W 000°30'0 0.0 120 / 101010.2 9.4 10.0
2019-May-18 21:00N 58°00' W 000°30'0 0.0 120 / 111010.2 9.4 10.0
2019-May-18 20:00N 58°00' W 000°30'0 0.0 140 / 151010.4 9.7 9.9
2019-May-18 19:00N 58°00' W 000°30'3 3.2 120 / 151010.2 9.7 10.0
2019-May-18 18:00N 58°00' W 000°24'0 0.0 120 / 131010.1 10.0 10.1
2019-May-18 17:00N 58°00' W 000°24'0 0.0 140 / 131009.8 9.9 10.1
2019-May-18 16:00N 58°00' W 000°24'3 3.2 130 / 131009.7 9.9 10.1
2019-May-18 15:00N 58°00' W 000°30'0 0.0 130 / 121009.6 9.9 10.2
2019-May-18 14:00N 58°00' W 000°30'0 0.0 110 / 171009.7 9.7 10.1
2019-May-18 13:00N 58°00' W 000°30'0 0.0 090 / 201009.7 9.7 10.2
2019-May-18 12:00N 58°00' W 000°30'0 0.0 090 / 251009.9 9.7 10.2
2019-May-18 11:00N 58°00' W 000°30'0 0.0 080 / 231010.2 9.7 10.2
2019-May-18 10:00N 58°00' W 000°30'0 0.0 080 / 201010.4 9.9 10.3
2019-May-18 09:00N 58°00' W 000°30'0 0.0 080 / 171010.7 9.9 10.3
2019-May-18 08:00N 58°00' W 000°30'0 0.0 070 / 181011.0 9.9 10.3
2019-May-18 07:00N 58°00' W 000°30'0 0.0 090 / 181011.3 9.9 10.2
2019-May-18 06:00N 58°00' W 000°30'0 0.0 080 / 211011.7 10.0 10.3
2019-May-18 05:00N 58°00' W 000°30'0 0.0 080 / 221012.4 10.5 10.4
2019-May-18 04:00N 58°00' W 000°30'6 6.0 070 / 161012.6 11.0 10.3
2019-May-18 03:00N 57°54' W 000°30'0 0.0 060 / 181013.1 11.5 10.2
2019-May-18 02:00N 57°54' W 000°30'0 0.0 020 / 151013.2 11.2 10.2
2019-May-18 01:00N 57°54' W 000°30'6 6.0 020 / 121014.0 10.9 10.2
2019-May-18 00:00N 58°00' W 000°30'0 0.0 030 / 101014.8 10.9 10.3
2019-May-17 23:00N 58°00' W 000°30'0 0.0 040 / 61015.7 11.0 10.4
2019-May-17 22:00N 58°00' W 000°30'3 1.6 070 / 41016.1 11.0 10.4
2019-May-17 20:00N 58°00' W 000°24'0 0.0 080 / 101017.3 11.9 10.5
2019-May-17 19:00N 58°00' W 000°24'0 0.0 070 / 171017.5 11.5 10.4
2019-May-17 18:00N 58°00' W 000°24'3 3.2 060 / 131017.5 11.4 10.5
2019-May-17 17:00N 58°00' W 000°30'0 0.0 050 / 151017.6 11.2 10.5
2019-May-17 16:00N 58°00' W 000°30'0 0.0 060 / 151018.0 11.9 10.6
2019-May-17 15:00N 58°00' W 000°30'0 0.0 090 / 141018.2 12.7 10.6
2019-May-17 14:00N 58°00' W 000°30'0 0.0 090 / 161018.7 12.2 10.5
2019-May-17 13:00N 58°00' W 000°30'0 0.0 090 / 161019.2 11.9 10.4
2019-May-17 12:00N 58°00' W 000°30'0 0.0 090 / 141019.5 11.7 10.4
2019-May-17 11:00N 58°00' W 000°30'0 0.0 090 / 171019.6 11.7 10.2
2019-May-17 10:00N 58°00' W 000°30'0 0.0 070 / 181019.7 11.2 9.9
2019-May-17 09:00N 58°00' W 000°30'0 0.0 070 / 161019.9 10.7 9.9
2019-May-17 08:00N 58°00' W 000°30'0 0.0 050 / 181020.2 11.0 9.9
2019-May-17 07:00N 58°00' W 000°30'0 0.0 050 / 141020.7 11.2 9.9
2019-May-17 06:00N 58°00' W 000°30'3 3.2 060 / 121021.2 10.9 10.0
2019-May-17 05:00N 58°00' W 000°24'0 0.0 050 / 111021.6 10.4 10.2
2019-May-17 04:00N 58°00' W 000°24'0 0.0 060 / 121021.9 10.4 10.1
2019-May-17 03:00N 58°00' W 000°24'0 0.0 060 / 111022.3 10.2 10.4
2019-May-17 02:00N 58°00' W 000°24'0 0.0 080 / 121022.7 10.2 10.4
2019-May-17 01:00N 58°00' W 000°24'0 0.0 090 / 111023.3 10.2 10.4
2019-May-17 00:00N 58°00' W 000°24'0 0.0 100 / 131023.7 10.2 10.4
2019-May-16 23:00N 58°00' W 000°24'0 0.0 100 / 161024.0 9.9 10.4
2019-May-16 22:00N 58°00' W 000°24'0 0.0 110 / 111024.2 9.9 10.2
2019-May-16 20:00N 58°00' W 000°24'0 0.0 120 / 111024.4 9.9 10.4
2019-May-16 19:00N 58°00' W 000°24'0 0.0 130 / 141024.4 9.9 10.4
2019-May-16 18:00N 58°00' W 000°24'3 3.2 140 / 151024.5 9.7 10.3
2019-May-16 17:00N 58°00' W 000°18'0 0.0 140 / 181024.9 9.7 10.2
2019-May-16 16:00N 58°00' W 000°18'0 0.0 140 / 151025.6 9.5 10.2
2019-May-16 15:00N 58°00' W 000°18'3 3.2 150 / 141025.6 9.5 10.3
2019-May-16 14:00N 58°00' W 000°12'0 0.0 140 / 161026.2 9.5 10.2
2019-May-16 13:00N 58°00' W 000°12'0 0.0 140 / 191026.2 9.4 10.1
2019-May-16 12:00N 58°00' W 000°12'0 0.0 150 / 141026.3 9.2 9.9
2019-May-16 11:00N 58°00' W 000°12'0 0.0 140 / 151026.4 8.7 10.0
2019-May-16 10:00N 58°00' W 000°12'0 0.0 150 / 151026.7 8.4 10.1
2019-May-16 09:00N 58°00' W 000°12'0 0.0 150 / 141026.9 8.7 10.2
2019-May-16 08:00N 58°00' W 000°12'0 0.0 150 / 141027.1 8.5 10.1
2019-May-16 07:00N 58°00' W 000°12'0 0.0 150 / 141027.1 8.0 10.0
2019-May-16 06:00N 58°00' W 000°12'0 0.0 140 / 161027.2 7.9 10.1
2019-May-16 05:00N 58°00' W 000°12'3 3.7 140 / 161027.2 7.9 10.1
2019-May-16 04:11N 57°60' W 000°06'0 2.4
2019-May-16 04:00N 58°00' W 000°06'3 3.2 150 / 151027.2 8.2 10.0
2019-May-16 03:00N 58°00' E 000°00'3 3.2 150 / 131027.4 8.4 10.1
2019-May-16 02:00N 58°00' E 000°06'0 0.0 150 / 141027.8 8.2 10.2
2019-May-16 01:00N 58°00' E 000°06'3 3.2 150 / 141028.0 8.2 10.2
2019-May-16 00:00N 58°00' E 000°12'3 3.2 150 / 161028.2 8.2 10.1
2019-May-15 23:00N 58°00' E 000°18'3 3.2 140 / 161028.6 8.0 10.2
2019-May-15 22:00N 58°00' E 000°24'3 3.8 150 / 161028.6 7.9 10.1
2019-May-15 21:17N 57°57' E 000°25'3 2.9
2019-May-15 20:22N 57°57' E 000°30'0 0.8
2019-May-15 20:00N 57°57' E 000°30'3182.7
2019-May-15 20:00N 58°00' E 000°30'9 8.7 130 / 141028.9 9.0 10.3
2019-May-15 19:00N 57°54' E 000°18'2 6.5 130 / 121028.7 8.7 10.3
2019-May-15 18:37N 57°56' E 000°14'1 2.7
2019-May-15 18:25N 57°56' E 000°15'2 5.8
2019-May-15 18:00N 57°54' E 000°18'1 3.9 140 / 111028.6 7.5 10.4
2019-May-15 17:37N 57°55' E 000°16'0 0.7
2019-May-15 17:15N 57°55' E 000°16'2 8.4
2019-May-15 17:00N 57°54' E 000°12'7 6.8 130 / 141028.8 7.4 10.4
2019-May-15 16:00N 57°48' E 000°06'214.8 140 / 111028.9 7.7 10.3
2019-May-15 15:53N 57°50' E 000°07'0 0.2
2019-May-15 15:05N 57°50' E 000°07'217.4
2019-May-15 15:00N 57°48' E 000°06'0 0.0 120 / 151029.2 8.4 10.5
2019-May-15 14:00N 57°48' E 000°06'0 0.0 120 / 121029.3 10.0 10.5
2019-May-15 13:00N 57°48' E 000°06'0 0.0 110 / 111029.5 10.2 10.4
2019-May-15 12:00N 57°48' E 000°06'0 0.0 140 / 101029.5 10.4 10.4
2019-May-15 11:00N 57°48' E 000°06'3 3.2 130 / 91029.5 9.9 10.2
2019-May-15 10:00N 57°48' E 000°00'0 0.0 130 / 141029.5 10.4 10.2
2019-May-15 09:00N 57°48' E 000°00'0 0.0 130 / 111029.5 9.9 10.0
2019-May-15 08:00N 57°48' E 000°00'0 0.0 140 / 111029.6 10.0 9.9
2019-May-15 07:00N 57°48' E 000°00'0 0.0 120 / 101029.5 9.9 10.0
2019-May-15 06:00N 57°48' E 000°00'0 0.0 100 / 111029.8 9.9 9.9
2019-May-15 05:00N 57°48' E 000°00'2 2.6 130 / 101029.6 9.9 9.8
2019-May-15 04:24N 57°47' W 000°02'2 3.9
2019-May-15 04:00N 57°48' E 000°00'3 3.2 140 / 91029.7 9.4 9.8
2019-May-15 03:00N 57°48' W 000°06'6 6.0 130 / 101029.9 9.4 9.9
2019-May-15 02:00N 57°42' W 000°06'0 0.0 120 / 111030.1 9.4 9.8
2019-May-15 01:00N 57°42' W 000°06'0 0.0 110 / 101030.4 9.4 10.2
2019-May-15 00:00N 57°42' W 000°06'3 3.2 120 / 71030.7 9.5 10.2
2019-May-14 23:00N 57°42' W 000°12'3 3.2 130 / 71030.9 9.7 9.9
2019-May-14 22:00N 57°42' W 000°06'7 6.8 110 / 71030.9 9.9 10.4
2019-May-14 21:00N 57°48' E 000°00'3 3.2 110 / 81031.0 10.0 10.7
2019-May-14 20:08N 57°47' E 000°04'211.8
2019-May-14 20:00N 57°48' E 000°06'0 0.0 080 / 71031.3 10.2 10.6
2019-May-14 19:00N 57°48' E 000°06'3 3.2 100 / 41031.2 10.7 10.9
2019-May-14 18:00N 57°48' E 000°00'2 5.1 120 / 61031.3 10.5 10.9
2019-May-14 17:31N 57°50' W 000°03'0 4.8
2019-May-14 17:30N 57°50' W 000°03'2 4.7
2019-May-14 17:00N 57°52' W 000°06'2150.7
2019-May-14 17:00N 57°54' W 000°06'1 3.0 110 / 71031.8 10.5 10.8
2019-May-14 16:31N 57°54' W 000°09'3 5.4
2019-May-14 16:00N 57°56' W 000°12'2411.7
2019-May-14 16:00N 57°54' W 000°12'5 9.2 090 / 81032.1 10.5 11.0
2019-May-14 15:30N 57°58' W 000°15'3 5.5
2019-May-14 15:00N 58°01' W 000°18'136.4
2019-May-14 15:00N 58°00' W 000°18'3 5.4 100 / 51032.5 10.4 11.0
2019-May-14 14:29N 58°03' W 000°20'3 5.5
2019-May-14 14:00N 58°00' W 000°18'375.1 110 / 51032.8 10.4 10.8
2019-May-14 13:57N 58°03' W 000°20'0 0.8
2019-May-14 13:22N 58°03' W 000°20'3 8.9
2019-May-14 13:00N 58°00' W 000°18'0 0.0 100 / 61033.2 10.2 10.5
2019-May-14 12:00N 58°00' W 000°18'0 0.0 100 / 51033.5 10.2 10.2
2019-May-14 11:00N 58°00' W 000°18'0 0.0 100 / 51033.6 10.0 10.2
2019-May-14 10:00N 58°00' W 000°18'0 0.0 100 / 51033.8 10.0 10.0
2019-May-14 09:00N 58°00' W 000°18'0 0.0 130 / 61033.8 9.9 9.8
2019-May-14 08:00N 58°00' W 000°18'0 0.0 140 / 61034.1 9.7 9.7
2019-May-14 07:00N 58°00' W 000°18'0 0.0 140 / 81034.6 9.7 9.6
2019-May-14 06:00N 58°00' W 000°18'0 0.0 150 / 71034.7 9.7 9.7
2019-May-14 05:00N 58°00' W 000°18'0 0.0 170 / 91034.6 9.9 9.6
2019-May-14 04:00N 58°00' W 000°18'3 3.2 180 / 121034.8 9.7 9.6
2019-May-14 03:00N 58°00' W 000°24'0 0.0 180 / 121034.8 9.7 9.8
2019-May-14 02:00N 58°00' W 000°24'0 0.0 170 / 121035.1 9.7 9.7
2019-May-14 01:00N 58°00' W 000°24'0 0.0 160 / 131035.4 9.9 9.8
2019-May-14 00:00N 58°00' W 000°24'0 0.0 160 / 121035.8 9.7 9.8
2019-May-13 23:00N 58°00' W 000°24'0 0.0 170 / 131035.8 9.9 9.9
2019-May-13 22:00N 58°00' W 000°24'0 0.0 180 / 131036.2 9.9 9.9
2019-May-13 21:00N 58°00' W 000°24'0 0.0 180 / 131036.4 9.7 9.9
2019-May-13 20:00N 58°00' W 000°24'0 0.0 170 / 101036.8 9.9 9.9
2019-May-13 19:00N 58°00' W 000°24'0 0.0 170 / 91037.0 9.9 9.9
2019-May-13 18:00N 58°00' W 000°24'0 0.0 190 / 101036.9 10.0 9.8
2019-May-13 17:00N 58°00' W 000°24'3 3.2 180 / 111036.6 9.9 9.8
2019-May-13 16:00N 58°00' W 000°18'0 0.0 180 / 101036.7 9.9 10.0
2019-May-13 15:00N 58°00' W 000°18'0 0.0 170 / 81037.1 9.7 9.8
2019-May-13 14:00N 58°00' W 000°18'0 0.0 180 / 101037.7 9.7 9.7
2019-May-13 13:00N 58°00' W 000°18'0 0.0 190 / 101038.0 9.4 9.6
2019-May-13 12:00N 58°00' W 000°18'0 0.0 190 / 101037.8 9.2 9.4
2019-May-13 11:00N 58°00' W 000°18'0 0.0 200 / 111038.0 9.4 9.3
2019-May-13 10:00N 58°00' W 000°18'0 0.0 190 / 111038.0 9.2 9.2
2019-May-13 09:00N 58°00' W 000°18'0 0.0 180 / 121037.9 9.0 9.2
2019-May-13 08:00N 58°00' W 000°18'0 0.0 190 / 141037.9 9.0 9.2
2019-May-13 07:00N 58°00' W 000°18'0 0.0 180 / 161037.6 9.0 9.2
2019-May-13 06:00N 58°00' W 000°18'0 0.0 170 / 141037.5 8.9 9.2
2019-May-13 05:00N 58°00' W 000°18'0 0.0 190 / 151037.4 8.9 9.3
2019-May-13 04:00N 58°00' W 000°18'0 0.0 190 / 141037.5 8.9 9.2
2019-May-13 03:00N 58°00' W 000°18'0 0.0 180 / 141037.7 8.9 9.3
2019-May-13 02:00N 58°00' W 000°18'0 0.0 190 / 141037.7 9.0 9.2
2019-May-13 01:00N 58°00' W 000°18'0 0.0 190 / 141038.0 8.9 9.2
2019-May-13 00:00N 58°00' W 000°18'0 0.0 180 / 131038.4 8.9 9.2
2019-May-12 23:00N 58°00' W 000°18'0 0.0 190 / 111038.6 8.7 9.6
2019-May-12 22:00N 58°00' W 000°18'0 0.0 200 / 101038.2 8.7 9.7
2019-May-12 21:00N 58°00' W 000°18'0 0.0 220 / 91038.1 8.7 9.7
2019-May-12 20:00N 58°00' W 000°18'0 0.0 230 / 61038.0 8.7 9.8
2019-May-12 19:00N 58°00' W 000°18'0 0.0 240 / 61037.7 8.7 9.9
2019-May-12 18:00N 58°00' W 000°18'0 0.0 240 / 81037.5 8.7 10.0
2019-May-12 17:00N 58°00' W 000°18'0 0.0 240 / 71037.6 9.5 9.9
2019-May-12 16:00N 58°00' W 000°18'3 3.2 240 / 71037.4 9.4 9.8
2019-May-12 15:00N 58°00' W 000°24'0 0.0 270 / 51037.3 9.5 10.0
2019-May-12 14:00N 58°00' W 000°24'0 0.0 260 / 81037.0 8.4 9.7
2019-May-12 13:00N 58°00' W 000°24'0 0.0 270 / 101036.7 8.4 9.5
2019-May-12 12:00N 58°00' W 000°24'0 0.0 260 / 101036.4 8.4 9.4
2019-May-12 11:00N 58°00' W 000°24'0 0.0 250 / 71036.1 8.4 9.4
2019-May-12 10:00N 58°00' W 000°24'0 0.0 240 / 51035.5 8.2 9.5
2019-May-12 09:00N 58°00' W 000°24'0 0.0 240 / 41035.3 8.2 9.2
2019-May-12 08:00N 58°00' W 000°24'0 0.0 260 / 31034.8 8.2 9.1
2019-May-12 07:00N 58°00' W 000°24'0 0.0 300 / 31034.1 8.2 9.1
2019-May-12 06:00N 58°00' W 000°24'3 3.2 350 / 31033.6 7.9 9.0
2019-May-12 05:00N 58°00' W 000°18'6 6.0 350 / 71032.9 7.9 9.0
2019-May-12 04:00N 58°06' W 000°18'0 0.0 350 / 71032.4 7.7 8.9
2019-May-12 03:00N 58°06' W 000°18'0 0.0 350 / 61031.7 7.4 8.9
2019-May-12 02:00N 58°06' W 000°18'0 0.0 340 / 61031.2 7.4 9.0
2019-May-12 01:00N 58°06' W 000°18'6 6.0 360 / 61030.6 7.5 9.1
2019-May-12 00:00N 58°00' W 000°18'0 0.0 350 / 101030.1 7.5 9.0
2019-May-11 23:00N 58°00' W 000°18'0 0.0 350 / 131029.5 7.5 9.0
2019-May-11 22:00N 58°00' W 000°18'0 0.0 360 / 131028.5 7.7 9.0
2019-May-11 21:00N 58°00' W 000°18'0 0.0 340 / 131027.8 8.0 9.2
2019-May-11 20:00N 58°00' W 000°18'0 0.0 330 / 131026.9 8.0 9.3
2019-May-11 19:00N 58°00' W 000°18'0 0.0 340 / 111026.2 7.9 9.3
2019-May-11 18:00N 58°00' W 000°18'0 0.0 320 / 131025.5 8.2 9.2
2019-May-11 17:00N 58°00' W 000°18'0 0.0 320 / 131024.8 8.2 9.1
2019-May-11 16:00N 58°00' W 000°18'0 0.0 320 / 141023.9 8.2 9.1
2019-May-11 15:00N 58°00' W 000°18'3 3.2 310 / 181023.4 8.0 9.4
2019-May-11 14:00N 58°00' W 000°24'0 0.0 310 / 151022.8 7.9 9.3
2019-May-11 13:00N 58°00' W 000°24'0 0.0 330 / 121022.0 7.7 9.3
2019-May-11 12:00N 58°00' W 000°24'0 0.0 310 / 91021.2 7.2 9.3
2019-May-11 11:00N 58°00' W 000°24'0 0.0 310 / 61020.3 7.0 9.2
2019-May-11 10:00N 58°00' W 000°24'0 0.0 320 / 51019.7 6.4 9.0
2019-May-11 09:00N 58°00' W 000°24'0 0.0 360 / 91019.1 6.0 9.0
2019-May-11 08:00N 58°00' W 000°24'0 0.0 340 / 101018.3 5.9 8.9
2019-May-11 07:00N 58°00' W 000°24'0 0.0 360 / 101017.5 5.9 9.0
2019-May-11 06:00N 58°00' W 000°24'3 3.2 010 / 121016.7 5.7 9.0
2019-May-11 05:00N 58°00' W 000°18'0 0.0 350 / 191015.7 6.2 9.1
2019-May-11 04:00N 58°00' W 000°18'0 0.0 130 / 31015.0 7.7 9.2
2019-May-11 03:00N 58°00' W 000°18'0 0.0 130 / 41014.6 7.7 9.2
2019-May-11 02:00N 58°00' W 000°18'0 0.0 140 / 51014.4 7.5 9.2
2019-May-11 01:00N 58°00' W 000°18'0 0.0 130 / 41014.2 7.7 9.1
2019-May-11 00:00N 58°00' W 000°18'0 0.0 120 / 41014.0 7.5 9.0
2019-May-10 23:00N 58°00' W 000°18'0 0.0 130 / 21013.8 7.4 9.0
2019-May-10 22:00N 58°00' W 000°18'0 0.0 120 / 31013.3 7.5 9.1
2019-May-10 21:00N 58°00' W 000°18'0 0.0 090 / 41013.0 7.4 9.1
2019-May-10 20:00N 58°00' W 000°18'3 3.2 070 / 31012.5 7.7 9.0
2019-May-10 19:00N 58°00' W 000°24'0 0.0 100 / 21012.0 9.4 9.2
2019-May-10 18:00N 58°00' W 000°24'0 0.0 080 / 21011.6 7.9 9.6
2019-May-10 17:00N 58°00' W 000°24'0 0.0 050 / 31011.2 8.4 9.9
2019-May-10 16:00N 58°00' W 000°24'0 0.0 040 / 41010.8 8.5 9.8
2019-May-10 15:00N 58°00' W 000°24'0 0.0 360 / 41010.6 8.4 9.8
2019-May-10 14:00N 58°00' W 000°24'0 0.0 320 / 51010.4 8.4 9.4
2019-May-10 13:00N 58°00' W 000°24'0 0.0 300 / 51010.0 8.2 9.2
2019-May-10 12:00N 58°00' W 000°24'0 0.0 300 / 71009.5 7.7 9.1
2019-May-10 11:00N 58°00' W 000°24'0 0.0 300 / 51009.3 7.7 9.1
2019-May-10 10:00N 58°00' W 000°24'0 0.0 320 / 51009.0 7.5 8.9
2019-May-10 09:00N 58°00' W 000°24'0 0.0 330 / 61008.4 7.7 8.8
2019-May-10 08:00N 58°00' W 000°24'0 0.0 1007.9 7.2 8.7
2019-May-10 07:00N 58°00' W 000°24'3 3.2 350 / 81007.3 7.4 8.6
2019-May-10 06:00N 58°00' W 000°18'0 0.0 350 / 111006.8 7.0 8.6
2019-May-10 05:00N 58°00' W 000°18'0 0.0 330 / 161006.5 6.7 8.6
2019-May-10 04:00N 58°00' W 000°18'0 0.0 330 / 121006.1 6.7 8.6
2019-May-10 03:00N 58°00' W 000°18'   330 / 131005.8 6.9 8.6
Track history (hours):
 
Tides and Currents Weather Stations Pressure Air Temp Water Temp Dewpoint Dewpoint Depression Visibility Wind Speed Wind Dir Waves Ship Positions

Oceanographic research ship Poseidon (Germany)

Detailed information on ship capabilities available from University of Delaware's Ocean Information Center.

Last reported at 2019-May-20 04:00 UTC. Time now 2019-May-20 04:27 UTC.
Position N 58°00' W 000°24'.

Length 60 m; beam 11.4 m; draft 4.1 m.

Type: Ship. MMSI: 211204360.

Wind from 130 at 6 knots

Barometer 1012.2 mb
Air temperature 10.2 ° C
Water temperature 10.6 ° C

Date/timePositionNaut miles runAvg speedWind from/ knotsBaromVisibWave heightAir tempDewpointWater temp
2019-May-20 04:00N 58°00' W 000°24'0 0.0 130 / 61012.2 10.2 10.6
2019-May-20 03:00N 58°00' W 000°24'0 0.0 150 / 51011.9 10.4 10.7
2019-May-20 02:00N 58°00' W 000°24'0 0.0 180 / 71012.0 10.4 10.6
2019-May-20 01:00N 58°00' W 000°24'0 0.0 180 / 71012.3 10.9 10.6
2019-May-20 00:00N 58°00' W 000°24'0 0.0 160 / 81012.4 10.7 10.6
2019-May-19 23:00N 58°00' W 000°24'0 0.0 180 / 61012.4 10.5 10.7
2019-May-19 22:00N 58°00' W 000°24'0 0.0 170 / 81012.6 10.2 10.7
2019-May-19 20:00N 58°00' W 000°24'0 0.0 180 / 91012.0 10.4 10.7
2019-May-19 19:00N 58°00' W 000°24'0 0.0 150 / 81011.5 10.4 10.8
2019-May-19 18:00N 58°00' W 000°24'0 0.0 150 / 81011.3 10.5 10.5
2019-May-19 17:00N 58°00' W 000°24'0 0.0 160 / 61011.2 10.4 10.5
2019-May-19 16:00N 58°00' W 000°24'3 3.2 170 / 61011.2 9.2 10.5
2019-May-19 15:00N 58°00' W 000°30'6 6.0 200 / 71011.0 9.9 10.7
2019-May-19 14:00N 57°54' W 000°30'6 6.0 210 / 71010.8 10.2 10.5
2019-May-19 13:00N 58°00' W 000°30'0 0.0 210 / 51010.5 10.2 10.3
2019-May-19 12:00N 58°00' W 000°30'0 0.0 210 / 81010.2 9.9 10.3
2019-May-19 11:00N 58°00' W 000°30'0 0.0 170 / 121010.0 10.0 10.3
2019-May-19 10:00N 58°00' W 000°30'0 0.0 160 / 81009.8 10.2 10.3
2019-May-19 09:00N 58°00' W 000°30'0 0.0 170 / 51009.7 9.9 10.2
2019-May-19 08:00N 58°00' W 000°30'0 0.0 170 / 71009.5 9.9 10.3
2019-May-19 07:00N 58°00' W 000°30'0 0.0 160 / 71009.1 9.9 10.3
2019-May-19 06:00N 58°00' W 000°30'0 0.0 160 / 81008.9 9.7 10.1
2019-May-19 05:00N 58°00' W 000°30'0 0.0 150 / 71008.8 9.7 10.1
2019-May-19 04:00N 58°00' W 000°30'0 0.0 160 / 81008.7 9.5 10.1
2019-May-19 03:00N 58°00' W 000°30'0 0.0 130 / 81008.8 9.7 10.0
2019-May-19 02:00N 58°00' W 000°30'0 0.0 110 / 141008.8 9.7 10.1
2019-May-19 01:00N 58°00' W 000°30'0 0.0 100 / 91009.0 9.7 10.1
2019-May-19 00:00N 58°00' W 000°30'0 0.0 100 / 71009.5 9.7 10.1
2019-May-18 23:00N 58°00' W 000°30'0 0.0 120 / 81009.8 9.4 10.1
2019-May-18 22:00N 58°00' W 000°30'0 0.0 120 / 101010.2 9.4 10.0
2019-May-18 21:00N 58°00' W 000°30'0 0.0 120 / 111010.2 9.4 10.0
2019-May-18 20:00N 58°00' W 000°30'0 0.0 140 / 151010.4 9.7 9.9
2019-May-18 19:00N 58°00' W 000°30'3 3.2 120 / 151010.2 9.7 10.0
2019-May-18 18:00N 58°00' W 000°24'0 0.0 120 / 131010.1 10.0 10.1
2019-May-18 17:00N 58°00' W 000°24'0 0.0 140 / 131009.8 9.9 10.1
2019-May-18 16:00N 58°00' W 000°24'3 3.2 130 / 131009.7 9.9 10.1
2019-May-18 15:00N 58°00' W 000°30'0 0.0 130 / 121009.6 9.9 10.2
2019-May-18 14:00N 58°00' W 000°30'0 0.0 110 / 171009.7 9.7 10.1
2019-May-18 13:00N 58°00' W 000°30'0 0.0 090 / 201009.7 9.7 10.2
2019-May-18 12:00N 58°00' W 000°30'0 0.0 090 / 251009.9 9.7 10.2
2019-May-18 11:00N 58°00' W 000°30'0 0.0 080 / 231010.2 9.7 10.2
2019-May-18 10:00N 58°00' W 000°30'0 0.0 080 / 201010.4 9.9 10.3
2019-May-18 09:00N 58°00' W 000°30'0 0.0 080 / 171010.7 9.9 10.3
2019-May-18 08:00N 58°00' W 000°30'0 0.0 070 / 181011.0 9.9 10.3
2019-May-18 07:00N 58°00' W 000°30'0 0.0 090 / 181011.3 9.9 10.2
2019-May-18 06:00N 58°00' W 000°30'0 0.0 080 / 211011.7 10.0 10.3
2019-May-18 05:00N 58°00' W 000°30'0 0.0 080 / 221012.4 10.5 10.4
2019-May-18 04:00N 58°00' W 000°30'6 6.0 070 / 161012.6 11.0 10.3
2019-May-18 03:00N 57°54' W 000°30'0 0.0 060 / 181013.1 11.5 10.2
2019-May-18 02:00N 57°54' W 000°30'0 0.0 020 / 151013.2 11.2 10.2
2019-May-18 01:00N 57°54' W 000°30'6 6.0 020 / 121014.0 10.9 10.2
2019-May-18 00:00N 58°00' W 000°30'0 0.0 030 / 101014.8 10.9 10.3
2019-May-17 23:00N 58°00' W 000°30'0 0.0 040 / 61015.7 11.0 10.4
2019-May-17 22:00N 58°00' W 000°30'3 1.6 070 / 41016.1 11.0 10.4
2019-May-17 20:00N 58°00' W 000°24'0 0.0 080 / 101017.3 11.9 10.5
2019-May-17 19:00N 58°00' W 000°24'0 0.0 070 / 171017.5 11.5 10.4
2019-May-17 18:00N 58°00' W 000°24'3 3.2 060 / 131017.5 11.4 10.5
2019-May-17 17:00N 58°00' W 000°30'0 0.0 050 / 151017.6 11.2 10.5
2019-May-17 16:00N 58°00' W 000°30'0 0.0 060 / 151018.0 11.9 10.6
2019-May-17 15:00N 58°00' W 000°30'0 0.0 090 / 141018.2 12.7 10.6
2019-May-17 14:00N 58°00' W 000°30'0 0.0 090 / 161018.7 12.2 10.5
2019-May-17 13:00N 58°00' W 000°30'0 0.0 090 / 161019.2 11.9 10.4
2019-May-17 12:00N 58°00' W 000°30'0 0.0 090 / 141019.5 11.7 10.4
2019-May-17 11:00N 58°00' W 000°30'0 0.0 090 / 171019.6 11.7 10.2
2019-May-17 10:00N 58°00' W 000°30'0 0.0 070 / 181019.7 11.2 9.9
2019-May-17 09:00N 58°00' W 000°30'0 0.0 070 / 161019.9 10.7 9.9
2019-May-17 08:00N 58°00' W 000°30'0 0.0 050 / 181020.2 11.0 9.9
2019-May-17 07:00N 58°00' W 000°30'0 0.0 050 / 141020.7 11.2 9.9
2019-May-17 06:00N 58°00' W 000°30'3 3.2 060 / 121021.2 10.9 10.0
2019-May-17 05:00N 58°00' W 000°24'0 0.0 050 / 111021.6 10.4 10.2
2019-May-17 04:00N 58°00' W 000°24'0 0.0 060 / 121021.9 10.4 10.1
2019-May-17 03:00N 58°00' W 000°24'0 0.0 060 / 111022.3 10.2 10.4
2019-May-17 02:00N 58°00' W 000°24'0 0.0 080 / 121022.7 10.2 10.4
2019-May-17 01:00N 58°00' W 000°24'0 0.0 090 / 111023.3 10.2 10.4
2019-May-17 00:00N 58°00' W 000°24'0 0.0 100 / 131023.7 10.2 10.4
2019-May-16 23:00N 58°00' W 000°24'0 0.0 100 / 161024.0 9.9 10.4
2019-May-16 22:00N 58°00' W 000°24'0 0.0 110 / 111024.2 9.9 10.2
2019-May-16 20:00N 58°00' W 000°24'0 0.0 120 / 111024.4 9.9 10.4
2019-May-16 19:00N 58°00' W 000°24'0 0.0 130 / 141024.4 9.9 10.4
2019-May-16 18:00N 58°00' W 000°24'3 3.2 140 / 151024.5 9.7 10.3
2019-May-16 17:00N 58°00' W 000°18'0 0.0 140 / 181024.9 9.7 10.2
2019-May-16 16:00N 58°00' W 000°18'0 0.0 140 / 151025.6 9.5 10.2
2019-May-16 15:00N 58°00' W 000°18'3 3.2 150 / 141025.6 9.5 10.3
2019-May-16 14:00N 58°00' W 000°12'0 0.0 140 / 161026.2 9.5 10.2
2019-May-16 13:00N 58°00' W 000°12'0 0.0 140 / 191026.2 9.4 10.1
2019-May-16 12:00N 58°00' W 000°12'0 0.0 150 / 141026.3 9.2 9.9
2019-May-16 11:00N 58°00' W 000°12'0 0.0 140 / 151026.4 8.7 10.0
2019-May-16 10:00N 58°00' W 000°12'0 0.0 150 / 151026.7 8.4 10.1
2019-May-16 09:00N 58°00' W 000°12'0 0.0 150 / 141026.9 8.7 10.2
2019-May-16 08:00N 58°00' W 000°12'0 0.0 150 / 141027.1 8.5 10.1
2019-May-16 07:00N 58°00' W 000°12'0 0.0 150 / 141027.1 8.0 10.0
2019-May-16 06:00N 58°00' W 000°12'0 0.0 140 / 161027.2 7.9 10.1
2019-May-16 05:00N 58°00' W 000°12'3 3.7 140 / 161027.2 7.9 10.1
2019-May-16 04:11N 57°60' W 000°06'0 2.4
2019-May-16 04:00N 58°00' W 000°06'3 3.2 150 / 151027.2 8.2 10.0
2019-May-16 03:00N 58°00' E 000°00'3 3.2 150 / 131027.4 8.4 10.1
2019-May-16 02:00N 58°00' E 000°06'0 0.0 150 / 141027.8 8.2 10.2
2019-May-16 01:00N 58°00' E 000°06'3 3.2 150 / 141028.0 8.2 10.2
2019-May-16 00:00N 58°00' E 000°12'3 3.2 150 / 161028.2 8.2 10.1
2019-May-15 23:00N 58°00' E 000°18'3 3.2 140 / 161028.6 8.0 10.2
2019-May-15 22:00N 58°00' E 000°24'3 3.8 150 / 161028.6 7.9 10.1
2019-May-15 21:17N 57°57' E 000°25'3 2.9
2019-May-15 20:22N 57°57' E 000°30'0 0.8
2019-May-15 20:00N 57°57' E 000°30'3182.7
2019-May-15 20:00N 58°00' E 000°30'9 8.7 130 / 141028.9 9.0 10.3
2019-May-15 19:00N 57°54' E 000°18'2 6.5 130 / 121028.7 8.7 10.3
2019-May-15 18:37N 57°56' E 000°14'1 2.7
2019-May-15 18:25N 57°56' E 000°15'2 5.8
2019-May-15 18:00N 57°54' E 000°18'1 3.9 140 / 111028.6 7.5 10.4
2019-May-15 17:37N 57°55' E 000°16'0 0.7
2019-May-15 17:15N 57°55' E 000°16'2 8.4
2019-May-15 17:00N 57°54' E 000°12'7 6.8 130 / 141028.8 7.4 10.4
2019-May-15 16:00N 57°48' E 000°06'214.8 140 / 111028.9 7.7 10.3
2019-May-15 15:53N 57°50' E 000°07'0 0.2
2019-May-15 15:05N 57°50' E 000°07'217.4
2019-May-15 15:00N 57°48' E 000°06'0 0.0 120 / 151029.2 8.4 10.5
2019-May-15 14:00N 57°48' E 000°06'0 0.0 120 / 121029.3 10.0 10.5
2019-May-15 13:00N 57°48' E 000°06'0 0.0 110 / 111029.5 10.2 10.4
2019-May-15 12:00N 57°48' E 000°06'0 0.0 140 / 101029.5 10.4 10.4
2019-May-15 11:00N 57°48' E 000°06'3 3.2 130 / 91029.5 9.9 10.2
2019-May-15 10:00N 57°48' E 000°00'0 0.0 130 / 141029.5 10.4 10.2
2019-May-15 09:00N 57°48' E 000°00'0 0.0 130 / 111029.5 9.9 10.0
2019-May-15 08:00N 57°48' E 000°00'0 0.0 140 / 111029.6 10.0 9.9
2019-May-15 07:00N 57°48' E 000°00'0 0.0 120 / 101029.5 9.9 10.0
2019-May-15 06:00N 57°48' E 000°00'0 0.0 100 / 111029.8 9.9 9.9
2019-May-15 05:00N 57°48' E 000°00'2 2.6 130 / 101029.6 9.9 9.8
2019-May-15 04:24N 57°47' W 000°02'2 3.9
2019-May-15 04:00N 57°48' E 000°00'3 3.2 140 / 91029.7 9.4 9.8
2019-May-15 03:00N 57°48' W 000°06'6 6.0 130 / 101029.9 9.4 9.9
2019-May-15 02:00N 57°42' W 000°06'0 0.0 120 / 111030.1 9.4 9.8
2019-May-15 01:00N 57°42' W 000°06'0 0.0 110 / 101030.4 9.4 10.2
2019-May-15 00:00N 57°42' W 000°06'3 3.2 120 / 71030.7 9.5 10.2
2019-May-14 23:00N 57°42' W 000°12'3 3.2 130 / 71030.9 9.7 9.9
2019-May-14 22:00N 57°42' W 000°06'7 6.8 110 / 71030.9 9.9 10.4
2019-May-14 21:00N 57°48' E 000°00'3 3.2 110 / 81031.0 10.0 10.7
2019-May-14 20:08N 57°47' E 000°04'211.8
2019-May-14 20:00N 57°48' E 000°06'0 0.0 080 / 71031.3 10.2 10.6
2019-May-14 19:00N 57°48' E 000°06'3 3.2 100 / 41031.2 10.7 10.9
2019-May-14 18:00N 57°48' E 000°00'2 5.1 120 / 61031.3 10.5 10.9
2019-May-14 17:31N 57°50' W 000°03'0 4.8
2019-May-14 17:30N 57°50' W 000°03'2 4.7
2019-May-14 17:00N 57°52' W 000°06'2150.7
2019-May-14 17:00N 57°54' W 000°06'1 3.0 110 / 71031.8 10.5 10.8
2019-May-14 16:31N 57°54' W 000°09'3 5.4
2019-May-14 16:00N 57°56' W 000°12'2411.7
2019-May-14 16:00N 57°54' W 000°12'5 9.2 090 / 81032.1 10.5 11.0
2019-May-14 15:30N 57°58' W 000°15'3 5.5
2019-May-14 15:00N 58°01' W 000°18'136.4
2019-May-14 15:00N 58°00' W 000°18'3 5.4 100 / 51032.5 10.4 11.0
2019-May-14 14:29N 58°03' W 000°20'3 5.5
2019-May-14 14:00N 58°00' W 000°18'375.1 110 / 51032.8 10.4 10.8
2019-May-14 13:57N 58°03' W 000°20'0 0.8
2019-May-14 13:22N 58°03' W 000°20'3 8.9
2019-May-14 13:00N 58°00' W 000°18'0 0.0 100 / 61033.2 10.2 10.5
2019-May-14 12:00N 58°00' W 000°18'0 0.0 100 / 51033.5 10.2 10.2
2019-May-14 11:00N 58°00' W 000°18'0 0.0 100 / 51033.6 10.0 10.2
2019-May-14 10:00N 58°00' W 000°18'0 0.0 100 / 51033.8 10.0 10.0
2019-May-14 09:00N 58°00' W 000°18'0 0.0 130 / 61033.8 9.9 9.8
2019-May-14 08:00N 58°00' W 000°18'0 0.0 140 / 61034.1 9.7 9.7
2019-May-14 07:00N 58°00' W 000°18'0 0.0 140 / 81034.6 9.7 9.6
2019-May-14 06:00N 58°00' W 000°18'0 0.0 150 / 71034.7 9.7 9.7
2019-May-14 05:00N 58°00' W 000°18'0 0.0 170 / 91034.6 9.9 9.6
2019-May-14 04:00N 58°00' W 000°18'3 3.2 180 / 121034.8 9.7 9.6
2019-May-14 03:00N 58°00' W 000°24'0 0.0 180 / 121034.8 9.7 9.8
2019-May-14 02:00N 58°00' W 000°24'0 0.0 170 / 121035.1 9.7 9.7
2019-May-14 01:00N 58°00' W 000°24'0 0.0 160 / 131035.4 9.9 9.8
2019-May-14 00:00N 58°00' W 000°24'0 0.0 160 / 121035.8 9.7 9.8
2019-May-13 23:00N 58°00' W 000°24'0 0.0 170 / 131035.8 9.9 9.9
2019-May-13 22:00N 58°00' W 000°24'0 0.0 180 / 131036.2 9.9 9.9
2019-May-13 21:00N 58°00' W 000°24'0 0.0 180 / 131036.4 9.7 9.9
2019-May-13 20:00N 58°00' W 000°24'0 0.0 170 / 101036.8 9.9 9.9
2019-May-13 19:00N 58°00' W 000°24'0 0.0 170 / 91037.0 9.9 9.9
2019-May-13 18:00N 58°00' W 000°24'0 0.0 190 / 101036.9 10.0 9.8
2019-May-13 17:00N 58°00' W 000°24'3 3.2 180 / 111036.6 9.9 9.8
2019-May-13 16:00N 58°00' W 000°18'0 0.0 180 / 101036.7 9.9 10.0
2019-May-13 15:00N 58°00' W 000°18'0 0.0 170 / 81037.1 9.7 9.8
2019-May-13 14:00N 58°00' W 000°18'0 0.0 180 / 101037.7 9.7 9.7
2019-May-13 13:00N 58°00' W 000°18'0 0.0 190 / 101038.0 9.4 9.6
2019-May-13 12:00N 58°00' W 000°18'0 0.0 190 / 101037.8 9.2 9.4
2019-May-13 11:00N 58°00' W 000°18'0 0.0 200 / 111038.0 9.4 9.3
2019-May-13 10:00N 58°00' W 000°18'0 0.0 190 / 111038.0 9.2 9.2
2019-May-13 09:00N 58°00' W 000°18'0 0.0 180 / 121037.9 9.0 9.2
2019-May-13 08:00N 58°00' W 000°18'0 0.0 190 / 141037.9 9.0 9.2
2019-May-13 07:00N 58°00' W 000°18'0 0.0 180 / 161037.6 9.0 9.2
2019-May-13 06:00N 58°00' W 000°18'0 0.0 170 / 141037.5 8.9 9.2
2019-May-13 05:00N 58°00' W 000°18'0 0.0 190 / 151037.4 8.9 9.3
2019-May-13 04:00N 58°00' W 000°18'0 0.0 190 / 141037.5 8.9 9.2
2019-May-13 03:00N 58°00' W 000°18'0 0.0 180 / 141037.7 8.9 9.3
2019-May-13 02:00N 58°00' W 000°18'0 0.0 190 / 141037.7 9.0 9.2
2019-May-13 01:00N 58°00' W 000°18'0 0.0 190 / 141038.0 8.9 9.2
2019-May-13 00:00N 58°00' W 000°18'0 0.0 180 / 131038.4 8.9 9.2
2019-May-12 23:00N 58°00' W 000°18'0 0.0 190 / 111038.6 8.7 9.6
2019-May-12 22:00N 58°00' W 000°18'0 0.0 200 / 101038.2 8.7 9.7
2019-May-12 21:00N 58°00' W 000°18'0 0.0 220 / 91038.1 8.7 9.7
2019-May-12 20:00N 58°00' W 000°18'0 0.0 230 / 61038.0 8.7 9.8
2019-May-12 19:00N 58°00' W 000°18'0 0.0 240 / 61037.7 8.7 9.9
2019-May-12 18:00N 58°00' W 000°18'0 0.0 240 / 81037.5 8.7 10.0
2019-May-12 17:00N 58°00' W 000°18'0 0.0 240 / 71037.6 9.5 9.9
2019-May-12 16:00N 58°00' W 000°18'3 3.2 240 / 71037.4 9.4 9.8
2019-May-12 15:00N 58°00' W 000°24'0 0.0 270 / 51037.3 9.5 10.0
2019-May-12 14:00N 58°00' W 000°24'0 0.0 260 / 81037.0 8.4 9.7
2019-May-12 13:00N 58°00' W 000°24'0 0.0 270 / 101036.7 8.4 9.5
2019-May-12 12:00N 58°00' W 000°24'0 0.0 260 / 101036.4 8.4 9.4
2019-May-12 11:00N 58°00' W 000°24'0 0.0 250 / 71036.1 8.4 9.4
2019-May-12 10:00N 58°00' W 000°24'0 0.0 240 / 51035.5 8.2 9.5
2019-May-12 09:00N 58°00' W 000°24'0 0.0 240 / 41035.3 8.2 9.2
2019-May-12 08:00N 58°00' W 000°24'0 0.0 260 / 31034.8 8.2 9.1
2019-May-12 07:00N 58°00' W 000°24'0 0.0 300 / 31034.1 8.2 9.1
2019-May-12 06:00N 58°00' W 000°24'3 3.2 350 / 31033.6 7.9 9.0
2019-May-12 05:00N 58°00' W 000°18'6 6.0 350 / 71032.9 7.9 9.0
2019-May-12 04:00N 58°06' W 000°18'0 0.0 350 / 71032.4 7.7 8.9
2019-May-12 03:00N 58°06' W 000°18'0 0.0 350 / 61031.7 7.4 8.9
2019-May-12 02:00N 58°06' W 000°18'0 0.0 340 / 61031.2 7.4 9.0
2019-May-12 01:00N 58°06' W 000°18'6 6.0 360 / 61030.6 7.5 9.1
2019-May-12 00:00N 58°00' W 000°18'0 0.0 350 / 101030.1 7.5 9.0
2019-May-11 23:00N 58°00' W 000°18'0 0.0 350 / 131029.5 7.5 9.0
2019-May-11 22:00N 58°00' W 000°18'0 0.0 360 / 131028.5 7.7 9.0
2019-May-11 21:00N 58°00' W 000°18'0 0.0 340 / 131027.8 8.0 9.2
2019-May-11 20:00N 58°00' W 000°18'0 0.0 330 / 131026.9 8.0 9.3
2019-May-11 19:00N 58°00' W 000°18'0 0.0 340 / 111026.2 7.9 9.3
2019-May-11 18:00N 58°00' W 000°18'0 0.0 320 / 131025.5 8.2 9.2
2019-May-11 17:00N 58°00' W 000°18'0 0.0 320 / 131024.8 8.2 9.1
2019-May-11 16:00N 58°00' W 000°18'0 0.0 320 / 141023.9 8.2 9.1
2019-May-11 15:00N 58°00' W 000°18'3 3.2 310 / 181023.4 8.0 9.4
2019-May-11 14:00N 58°00' W 000°24'0 0.0 310 / 151022.8 7.9 9.3
2019-May-11 13:00N 58°00' W 000°24'0 0.0 330 / 121022.0 7.7 9.3
2019-May-11 12:00N 58°00' W 000°24'0 0.0 310 / 91021.2 7.2 9.3
2019-May-11 11:00N 58°00' W 000°24'0 0.0 310 / 61020.3 7.0 9.2
2019-May-11 10:00N 58°00' W 000°24'0 0.0 320 / 51019.7 6.4 9.0
2019-May-11 09:00N 58°00' W 000°24'0 0.0 360 / 91019.1 6.0 9.0
2019-May-11 08:00N 58°00' W 000°24'0 0.0 340 / 101018.3 5.9 8.9
2019-May-11 07:00N 58°00' W 000°24'0 0.0 360 / 101017.5 5.9 9.0
2019-May-11 06:00N 58°00' W 000°24'3 3.2 010 / 121016.7 5.7 9.0
2019-May-11 05:00N 58°00' W 000°18'0 0.0 350 / 191015.7 6.2 9.1
2019-May-11 04:00N 58°00' W 000°18'0 0.0 130 / 31015.0 7.7 9.2
2019-May-11 03:00N 58°00' W 000°18'0 0.0 130 / 41014.6 7.7 9.2
2019-May-11 02:00N 58°00' W 000°18'0 0.0 140 / 51014.4 7.5 9.2
2019-May-11 01:00N 58°00' W 000°18'0 0.0 130 / 41014.2 7.7 9.1
2019-May-11 00:00N 58°00' W 000°18'0 0.0 120 / 41014.0 7.5 9.0
2019-May-10 23:00N 58°00' W 000°18'0 0.0 130 / 21013.8 7.4 9.0
2019-May-10 22:00N 58°00' W 000°18'0 0.0 120 / 31013.3 7.5 9.1
2019-May-10 21:00N 58°00' W 000°18'0 0.0 090 / 41013.0 7.4 9.1
2019-May-10 20:00N 58°00' W 000°18'3 3.2 070 / 31012.5 7.7 9.0
2019-May-10 19:00N 58°00' W 000°24'0 0.0 100 / 21012.0 9.4 9.2
2019-May-10 18:00N 58°00' W 000°24'0 0.0 080 / 21011.6 7.9 9.6
2019-May-10 17:00N 58°00' W 000°24'0 0.0 050 / 31011.2 8.4 9.9
2019-May-10 16:00N 58°00' W 000°24'0 0.0 040 / 41010.8 8.5 9.8
2019-May-10 15:00N 58°00' W 000°24'0 0.0 360 / 41010.6 8.4 9.8
2019-May-10 14:00N 58°00' W 000°24'0 0.0 320 / 51010.4 8.4 9.4
2019-May-10 13:00N 58°00' W 000°24'0 0.0 300 / 51010.0 8.2 9.2
2019-May-10 12:00N 58°00' W 000°24'0 0.0 300 / 71009.5 7.7 9.1
2019-May-10 11:00N 58°00' W 000°24'0 0.0 300 / 51009.3 7.7 9.1
2019-May-10 10:00N 58°00' W 000°24'0 0.0 320 / 51009.0 7.5 8.9
2019-May-10 09:00N 58°00' W 000°24'0 0.0 330 / 61008.4 7.7 8.8
2019-May-10 08:00N 58°00' W 000°24'0 0.0 1007.9 7.2 8.7
2019-May-10 07:00N 58°00' W 000°24'3 3.2 350 / 81007.3 7.4 8.6
2019-May-10 06:00N 58°00' W 000°18'0 0.0 350 / 111006.8 7.0 8.6
2019-May-10 05:00N 58°00' W 000°18'0 0.0 330 / 161006.5 6.7 8.6
2019-May-10 04:00N 58°00' W 000°18'0 0.0 330 / 121006.1 6.7 8.6
2019-May-10 03:00N 58°00' W 000°18'   330 / 131005.8 6.9 8.6

Dump ship's entire track history